sensor_id;sensor_type;location;lat;lon;timestamp;P1;durP1;ratioP1;P2;durP2;ratioP2
1178;SDS011;578;48.408;10.004;2023-10-19T00:01:41;80.15;;;52.17;;
1178;SDS011;578;48.408;10.004;2023-10-19T00:03:42;80.33;;;53.10;;
1178;SDS011;578;48.408;10.004;2023-10-19T00:05:44;73.68;;;52.75;;
1178;SDS011;578;48.408;10.004;2023-10-19T00:07:45;66.13;;;49.40;;
1178;SDS011;578;48.408;10.004;2023-10-19T00:09:48;69.80;;;51.10;;
1178;SDS011;578;48.408;10.004;2023-10-19T00:11:52;69.07;;;51.20;;
1178;SDS011;578;48.408;10.004;2023-10-19T00:13:54;66.90;;;50.80;;
1178;SDS011;578;48.408;10.004;2023-10-19T00:15:57;87.53;;;55.38;;
1178;SDS011;578;48.408;10.004;2023-10-19T00:17:59;70.40;;;50.70;;
1178;SDS011;578;48.408;10.004;2023-10-19T00:20:20;103.82;;;58.72;;
1178;SDS011;578;48.408;10.004;2023-10-19T00:22:38;78.20;;;52.75;;
1178;SDS011;578;48.408;10.004;2023-10-19T00:24:41;84.47;;;52.63;;
1178;SDS011;578;48.408;10.004;2023-10-19T00:26:43;104.67;;;56.17;;
1178;SDS011;578;48.408;10.004;2023-10-19T00:28:45;78.28;;;53.13;;
1178;SDS011;578;48.408;10.004;2023-10-19T00:30:46;79.25;;;54.60;;
1178;SDS011;578;48.408;10.004;2023-10-19T00:32:53;74.43;;;52.22;;
1178;SDS011;578;48.408;10.004;2023-10-19T00:34:54;99.60;;;56.85;;
1178;SDS011;578;48.408;10.004;2023-10-19T00:36:56;93.80;;;56.88;;
1178;SDS011;578;48.408;10.004;2023-10-19T00:39:01;92.13;;;58.00;;
1178;SDS011;578;48.408;10.004;2023-10-19T00:41:14;91.43;;;56.67;;
1178;SDS011;578;48.408;10.004;2023-10-19T00:43:29;78.15;;;53.58;;
1178;SDS011;578;48.408;10.004;2023-10-19T00:45:34;75.90;;;53.22;;
1178;SDS011;578;48.408;10.004;2023-10-19T00:47:39;82.05;;;56.40;;
1178;SDS011;578;48.408;10.004;2023-10-19T00:49:42;112.65;;;60.33;;
1178;SDS011;578;48.408;10.004;2023-10-19T00:51:45;67.25;;;51.55;;
1178;SDS011;578;48.408;10.004;2023-10-19T00:53:54;74.30;;;53.35;;
1178;SDS011;578;48.408;10.004;2023-10-19T00:55:58;68.55;;;53.13;;
1178;SDS011;578;48.408;10.004;2023-10-19T00:58:01;80.40;;;55.88;;
1178;SDS011;578;48.408;10.004;2023-10-19T01:00:11;78.25;;;51.05;;
1178;SDS011;578;48.408;10.004;2023-10-19T01:02:21;67.97;;;50.15;;
1178;SDS011;578;48.408;10.004;2023-10-19T01:04:29;69.07;;;50.67;;
1178;SDS011;578;48.408;10.004;2023-10-19T01:06:32;73.45;;;53.45;;
1178;SDS011;578;48.408;10.004;2023-10-19T01:08:34;80.70;;;53.13;;
1178;SDS011;578;48.408;10.004;2023-10-19T01:10:41;76.88;;;52.85;;
1178;SDS011;578;48.408;10.004;2023-10-19T01:12:46;90.22;;;57.53;;
1178;SDS011;578;48.408;10.004;2023-10-19T01:15:00;66.22;;;53.88;;
1178;SDS011;578;48.408;10.004;2023-10-19T01:17:08;111.03;;;61.33;;
1178;SDS011;578;48.408;10.004;2023-10-19T01:19:11;90.40;;;56.95;;
1178;SDS011;578;48.408;10.004;2023-10-19T01:21:18;94.65;;;57.95;;
1178;SDS011;578;48.408;10.004;2023-10-19T01:23:23;78.10;;;55.67;;
1178;SDS011;578;48.408;10.004;2023-10-19T01:25:26;81.80;;;54.78;;
1178;SDS011;578;48.408;10.004;2023-10-19T01:27:34;73.68;;;52.13;;
1178;SDS011;578;48.408;10.004;2023-10-19T01:29:37;72.97;;;52.17;;
1178;SDS011;578;48.408;10.004;2023-10-19T01:31:39;75.47;;;52.40;;
1178;SDS011;578;48.408;10.004;2023-10-19T01:33:51;67.32;;;52.17;;
1178;SDS011;578;48.408;10.004;2023-10-19T01:35:55;74.05;;;54.28;;
1178;SDS011;578;48.408;10.004;2023-10-19T01:38:14;75.43;;;51.65;;
1178;SDS011;578;48.408;10.004;2023-10-19T01:40:16;66.65;;;51.13;;
1178;SDS011;578;48.408;10.004;2023-10-19T01:42:21;68.43;;;52.58;;
1178;SDS011;578;48.408;10.004;2023-10-19T01:44:22;74.70;;;54.90;;
1178;SDS011;578;48.408;10.004;2023-10-19T01:46:24;67.82;;;51.00;;
1178;SDS011;578;48.408;10.004;2023-10-19T01:48:29;80.45;;;52.70;;
1178;SDS011;578;48.408;10.004;2023-10-19T01:50:33;65.80;;;49.10;;
1178;SDS011;578;48.408;10.004;2023-10-19T01:52:39;66.47;;;48.88;;
1178;SDS011;578;48.408;10.004;2023-10-19T01:54:40;59.95;;;48.95;;
1178;SDS011;578;48.408;10.004;2023-10-19T01:56:43;64.55;;;48.88;;
1178;SDS011;578;48.408;10.004;2023-10-19T01:58:46;66.15;;;49.67;;
1178;SDS011;578;48.408;10.004;2023-10-19T02:00:47;75.10;;;51.25;;
1178;SDS011;578;48.408;10.004;2023-10-19T02:02:49;70.85;;;49.38;;
1178;SDS011;578;48.408;10.004;2023-10-19T02:04:50;74.10;;;49.20;;
1178;SDS011;578;48.408;10.004;2023-10-19T02:06:54;78.60;;;52.65;;
1178;SDS011;578;48.408;10.004;2023-10-19T02:09:01;62.72;;;49.75;;
1178;SDS011;578;48.408;10.004;2023-10-19T02:11:09;72.93;;;49.47;;
1178;SDS011;578;48.408;10.004;2023-10-19T02:13:20;73.88;;;52.72;;
1178;SDS011;578;48.408;10.004;2023-10-19T02:15:22;72.47;;;50.40;;
1178;SDS011;578;48.408;10.004;2023-10-19T02:17:24;61.72;;;48.38;;
1178;SDS011;578;48.408;10.004;2023-10-19T02:19:26;66.95;;;49.20;;
1178;SDS011;578;48.408;10.004;2023-10-19T02:21:28;75.97;;;50.70;;
1178;SDS011;578;48.408;10.004;2023-10-19T02:23:30;64.38;;;49.08;;
1178;SDS011;578;48.408;10.004;2023-10-19T02:25:32;72.22;;;49.55;;
1178;SDS011;578;48.408;10.004;2023-10-19T02:27:36;65.85;;;49.90;;
1178;SDS011;578;48.408;10.004;2023-10-19T02:29:39;63.80;;;48.45;;
1178;SDS011;578;48.408;10.004;2023-10-19T02:31:42;59.47;;;47.17;;
1178;SDS011;578;48.408;10.004;2023-10-19T02:33:43;69.43;;;49.25;;
1178;SDS011;578;48.408;10.004;2023-10-19T02:35:46;65.97;;;49.20;;
1178;SDS011;578;48.408;10.004;2023-10-19T02:37:48;60.30;;;47.55;;
1178;SDS011;578;48.408;10.004;2023-10-19T02:39:49;63.80;;;47.15;;
1178;SDS011;578;48.408;10.004;2023-10-19T02:41:50;65.10;;;48.45;;
1178;SDS011;578;48.408;10.004;2023-10-19T02:43:53;64.50;;;48.80;;
1178;SDS011;578;48.408;10.004;2023-10-19T02:46:03;60.88;;;47.42;;
1178;SDS011;578;48.408;10.004;2023-10-19T02:48:05;59.88;;;45.80;;
1178;SDS011;578;48.408;10.004;2023-10-19T02:50:12;62.88;;;48.28;;
1178;SDS011;578;48.408;10.004;2023-10-19T02:52:16;79.95;;;49.65;;
1178;SDS011;578;48.408;10.004;2023-10-19T02:54:18;57.20;;;45.90;;
1178;SDS011;578;48.408;10.004;2023-10-19T02:56:22;63.60;;;44.75;;
1178;SDS011;578;48.408;10.004;2023-10-19T02:58:24;60.22;;;45.67;;
1178;SDS011;578;48.408;10.004;2023-10-19T03:00:28;59.90;;;45.35;;
1178;SDS011;578;48.408;10.004;2023-10-19T03:02:34;61.05;;;47.05;;
1178;SDS011;578;48.408;10.004;2023-10-19T03:04:36;59.00;;;47.97;;
1178;SDS011;578;48.408;10.004;2023-10-19T03:06:37;64.77;;;46.07;;
1178;SDS011;578;48.408;10.004;2023-10-19T03:08:40;59.80;;;44.50;;
1178;SDS011;578;48.408;10.004;2023-10-19T03:10:41;62.33;;;47.63;;
1178;SDS011;578;48.408;10.004;2023-10-19T03:12:43;62.17;;;46.88;;
1178;SDS011;578;48.408;10.004;2023-10-19T03:14:45;65.47;;;47.40;;
1178;SDS011;578;48.408;10.004;2023-10-19T03:16:48;69.32;;;46.42;;
1178;SDS011;578;48.408;10.004;2023-10-19T03:18:51;68.82;;;48.15;;
1178;SDS011;578;48.408;10.004;2023-10-19T03:20:55;65.05;;;48.92;;
1178;SDS011;578;48.408;10.004;2023-10-19T03:22:55;73.37;;;50.67;;
1178;SDS011;578;48.408;10.004;2023-10-19T03:25:02;75.57;;;48.97;;
1178;SDS011;578;48.408;10.004;2023-10-19T03:27:14;64.63;;;47.13;;
1178;SDS011;578;48.408;10.004;2023-10-19T03:29:18;75.40;;;51.05;;
1178;SDS011;578;48.408;10.004;2023-10-19T03:31:22;68.65;;;49.65;;
1178;SDS011;578;48.408;10.004;2023-10-19T03:33:25;79.85;;;51.00;;
1178;SDS011;578;48.408;10.004;2023-10-19T03:35:29;77.63;;;52.80;;
1178;SDS011;578;48.408;10.004;2023-10-19T03:37:30;69.53;;;50.03;;
1178;SDS011;578;48.408;10.004;2023-10-19T03:39:35;73.90;;;52.47;;
1178;SDS011;578;48.408;10.004;2023-10-19T03:41:38;70.32;;;50.53;;
1178;SDS011;578;48.408;10.004;2023-10-19T03:43:43;66.45;;;49.92;;
1178;SDS011;578;48.408;10.004;2023-10-19T03:45:46;73.88;;;50.67;;
1178;SDS011;578;48.408;10.004;2023-10-19T03:47:51;70.85;;;51.92;;
1178;SDS011;578;48.408;10.004;2023-10-19T03:49:55;77.90;;;51.22;;
1178;SDS011;578;48.408;10.004;2023-10-19T03:52:02;73.28;;;50.90;;
1178;SDS011;578;48.408;10.004;2023-10-19T03:54:20;73.80;;;49.00;;
1178;SDS011;578;48.408;10.004;2023-10-19T03:56:21;77.57;;;51.92;;
1178;SDS011;578;48.408;10.004;2023-10-19T03:58:24;73.55;;;51.35;;
1178;SDS011;578;48.408;10.004;2023-10-19T04:00:29;76.97;;;52.95;;
1178;SDS011;578;48.408;10.004;2023-10-19T04:02:33;89.28;;;54.55;;
1178;SDS011;578;48.408;10.004;2023-10-19T04:04:38;89.30;;;53.40;;
1178;SDS011;578;48.408;10.004;2023-10-19T04:06:43;80.57;;;53.08;;
1178;SDS011;578;48.408;10.004;2023-10-19T04:08:49;83.28;;;55.95;;
1178;SDS011;578;48.408;10.004;2023-10-19T04:10:51;74.28;;;51.55;;
1178;SDS011;578;48.408;10.004;2023-10-19T04:13:07;72.55;;;49.30;;
1178;SDS011;578;48.408;10.004;2023-10-19T04:15:10;73.97;;;51.00;;
1178;SDS011;578;48.408;10.004;2023-10-19T04:17:15;94.32;;;54.72;;
1178;SDS011;578;48.408;10.004;2023-10-19T04:19:17;78.57;;;53.65;;
1178;SDS011;578;48.408;10.004;2023-10-19T04:21:19;78.70;;;53.15;;
1178;SDS011;578;48.408;10.004;2023-10-19T04:23:20;78.00;;;51.38;;
1178;SDS011;578;48.408;10.004;2023-10-19T04:25:24;84.75;;;55.90;;
1178;SDS011;578;48.408;10.004;2023-10-19T04:27:27;91.97;;;56.33;;
1178;SDS011;578;48.408;10.004;2023-10-19T04:29:29;99.50;;;56.08;;
1178;SDS011;578;48.408;10.004;2023-10-19T04:31:31;121.05;;;59.40;;
1178;SDS011;578;48.408;10.004;2023-10-19T04:33:32;82.93;;;50.58;;
1178;SDS011;578;48.408;10.004;2023-10-19T04:35:34;75.35;;;50.08;;
1178;SDS011;578;48.408;10.004;2023-10-19T04:37:36;69.03;;;50.38;;
1178;SDS011;578;48.408;10.004;2023-10-19T04:39:42;75.45;;;49.63;;
1178;SDS011;578;48.408;10.004;2023-10-19T04:41:45;87.85;;;55.10;;
1178;SDS011;578;48.408;10.004;2023-10-19T04:43:49;75.70;;;51.28;;
1178;SDS011;578;48.408;10.004;2023-10-19T04:45:51;69.25;;;49.15;;
1178;SDS011;578;48.408;10.004;2023-10-19T04:47:52;68.97;;;50.03;;
1178;SDS011;578;48.408;10.004;2023-10-19T04:49:55;70.88;;;50.20;;
1178;SDS011;578;48.408;10.004;2023-10-19T04:51:56;72.93;;;50.65;;
1178;SDS011;578;48.408;10.004;2023-10-19T04:53:58;65.70;;;49.08;;
1178;SDS011;578;48.408;10.004;2023-10-19T04:56:00;59.55;;;47.97;;
1178;SDS011;578;48.408;10.004;2023-10-19T04:58:02;66.23;;;48.60;;
1178;SDS011;578;48.408;10.004;2023-10-19T05:00:06;58.65;;;45.30;;
1178;SDS011;578;48.408;10.004;2023-10-19T05:02:13;66.47;;;47.20;;
1178;SDS011;578;48.408;10.004;2023-10-19T05:04:15;75.70;;;48.63;;
1178;SDS011;578;48.408;10.004;2023-10-19T05:06:17;60.22;;;48.70;;
1178;SDS011;578;48.408;10.004;2023-10-19T05:08:18;61.53;;;47.45;;
1178;SDS011;578;48.408;10.004;2023-10-19T05:10:19;59.53;;;47.20;;
1178;SDS011;578;48.408;10.004;2023-10-19T05:12:21;66.00;;;47.72;;
1178;SDS011;578;48.408;10.004;2023-10-19T05:14:24;66.45;;;47.15;;
1178;SDS011;578;48.408;10.004;2023-10-19T05:16:26;74.25;;;49.33;;
1178;SDS011;578;48.408;10.004;2023-10-19T05:18:28;63.65;;;47.38;;
1178;SDS011;578;48.408;10.004;2023-10-19T05:20:30;66.05;;;49.60;;
1178;SDS011;578;48.408;10.004;2023-10-19T05:22:32;56.88;;;45.63;;
1178;SDS011;578;48.408;10.004;2023-10-19T05:24:34;60.00;;;46.65;;
1178;SDS011;578;48.408;10.004;2023-10-19T05:26:36;50.00;;;41.67;;
1178;SDS011;578;48.408;10.004;2023-10-19T05:28:48;52.42;;;42.63;;
1178;SDS011;578;48.408;10.004;2023-10-19T05:31:10;57.70;;;43.08;;
1178;SDS011;578;48.408;10.004;2023-10-19T05:33:17;49.00;;;42.42;;
1178;SDS011;578;48.408;10.004;2023-10-19T05:35:36;53.75;;;42.88;;
1178;SDS011;578;48.408;10.004;2023-10-19T05:38:05;55.67;;;44.58;;
1178;SDS011;578;48.408;10.004;2023-10-19T05:40:08;55.15;;;46.13;;
1178;SDS011;578;48.408;10.004;2023-10-19T05:42:21;50.90;;;43.75;;
1178;SDS011;578;48.408;10.004;2023-10-19T05:44:28;51.20;;;42.72;;
1178;SDS011;578;48.408;10.004;2023-10-19T05:46:39;57.40;;;45.53;;
1178;SDS011;578;48.408;10.004;2023-10-19T05:48:51;58.13;;;47.38;;
1178;SDS011;578;48.408;10.004;2023-10-19T05:51:03;50.53;;;42.35;;
1178;SDS011;578;48.408;10.004;2023-10-19T05:53:09;50.80;;;42.13;;
1178;SDS011;578;48.408;10.004;2023-10-19T05:55:22;48.03;;;41.88;;
1178;SDS011;578;48.408;10.004;2023-10-19T05:57:28;53.03;;;41.95;;
1178;SDS011;578;48.408;10.004;2023-10-19T05:59:45;47.45;;;40.78;;
1178;SDS011;578;48.408;10.004;2023-10-19T06:02:36;53.13;;;41.38;;
1178;SDS011;578;48.408;10.004;2023-10-19T06:04:39;51.10;;;42.20;;
1178;SDS011;578;48.408;10.004;2023-10-19T06:06:42;55.38;;;44.45;;
1178;SDS011;578;48.408;10.004;2023-10-19T06:08:54;48.95;;;43.17;;
1178;SDS011;578;48.408;10.004;2023-10-19T06:11:03;53.55;;;43.40;;
1178;SDS011;578;48.408;10.004;2023-10-19T06:13:04;51.92;;;41.70;;
1178;SDS011;578;48.408;10.004;2023-10-19T06:15:10;44.42;;;39.60;;
1178;SDS011;578;48.408;10.004;2023-10-19T06:17:14;50.97;;;42.50;;
1178;SDS011;578;48.408;10.004;2023-10-19T06:19:23;45.88;;;38.75;;
1178;SDS011;578;48.408;10.004;2023-10-19T06:21:29;59.10;;;44.60;;
1178;SDS011;578;48.408;10.004;2023-10-19T06:23:42;47.38;;;41.08;;
1178;SDS011;578;48.408;10.004;2023-10-19T06:25:50;48.65;;;39.63;;
1178;SDS011;578;48.408;10.004;2023-10-19T06:28:00;46.92;;;38.80;;
1178;SDS011;578;48.408;10.004;2023-10-19T06:30:17;47.33;;;39.10;;
1178;SDS011;578;48.408;10.004;2023-10-19T06:32:27;49.42;;;37.83;;
1178;SDS011;578;48.408;10.004;2023-10-19T06:34:38;45.28;;;36.67;;
1178;SDS011;578;48.408;10.004;2023-10-19T06:36:53;44.45;;;37.72;;
1178;SDS011;578;48.408;10.004;2023-10-19T06:39:05;42.15;;;37.60;;
1178;SDS011;578;48.408;10.004;2023-10-19T06:41:15;46.75;;;40.13;;
1178;SDS011;578;48.408;10.004;2023-10-19T06:43:19;45.20;;;38.83;;
1178;SDS011;578;48.408;10.004;2023-10-19T06:45:34;42.70;;;35.70;;
1178;SDS011;578;48.408;10.004;2023-10-19T06:47:39;39.33;;;35.05;;
1178;SDS011;578;48.408;10.004;2023-10-19T06:49:49;39.10;;;35.30;;
1178;SDS011;578;48.408;10.004;2023-10-19T06:51:55;41.13;;;36.92;;
1178;SDS011;578;48.408;10.004;2023-10-19T06:53:59;38.95;;;34.95;;
1178;SDS011;578;48.408;10.004;2023-10-19T06:56:23;36.70;;;32.63;;
1178;SDS011;578;48.408;10.004;2023-10-19T06:58:29;36.72;;;32.90;;
1178;SDS011;578;48.408;10.004;2023-10-19T07:00:45;38.08;;;34.17;;
1178;SDS011;578;48.408;10.004;2023-10-19T07:02:59;36.22;;;32.33;;
1178;SDS011;578;48.408;10.004;2023-10-19T07:05:19;35.70;;;32.10;;
1178;SDS011;578;48.408;10.004;2023-10-19T07:07:27;37.28;;;33.65;;
1178;SDS011;578;48.408;10.004;2023-10-19T07:09:45;38.05;;;34.25;;
1178;SDS011;578;48.408;10.004;2023-10-19T07:11:54;38.05;;;34.00;;
1178;SDS011;578;48.408;10.004;2023-10-19T07:14:11;39.90;;;34.88;;
1178;SDS011;578;48.408;10.004;2023-10-19T07:16:22;41.05;;;36.65;;
1178;SDS011;578;48.408;10.004;2023-10-19T07:19:01;33.47;;;30.07;;
1178;SDS011;578;48.408;10.004;2023-10-19T07:21:09;38.08;;;34.08;;
1178;SDS011;578;48.408;10.004;2023-10-19T07:23:14;37.67;;;32.63;;
1178;SDS011;578;48.408;10.004;2023-10-19T07:25:26;34.17;;;30.98;;
1178;SDS011;578;48.408;10.004;2023-10-19T07:27:48;34.40;;;31.05;;
1178;SDS011;578;48.408;10.004;2023-10-19T07:30:00;33.70;;;30.40;;
1178;SDS011;578;48.408;10.004;2023-10-19T07:32:33;36.22;;;32.72;;
1178;SDS011;578;48.408;10.004;2023-10-19T07:34:59;38.25;;;34.40;;
1178;SDS011;578;48.408;10.004;2023-10-19T07:37:15;36.67;;;33.05;;
1178;SDS011;578;48.408;10.004;2023-10-19T07:39:26;36.75;;;33.05;;
1178;SDS011;578;48.408;10.004;2023-10-19T07:41:41;38.22;;;34.30;;
1178;SDS011;578;48.408;10.004;2023-10-19T07:44:02;39.67;;;35.47;;
1178;SDS011;578;48.408;10.004;2023-10-19T07:46:08;37.92;;;34.08;;
1178;SDS011;578;48.408;10.004;2023-10-19T07:48:18;38.50;;;34.67;;
1178;SDS011;578;48.408;10.004;2023-10-19T07:50:25;35.38;;;31.77;;
1178;SDS011;578;48.408;10.004;2023-10-19T07:52:48;35.33;;;31.60;;
1178;SDS011;578;48.408;10.004;2023-10-19T07:54:56;34.20;;;30.90;;
1178;SDS011;578;48.408;10.004;2023-10-19T07:57:05;38.50;;;34.33;;
1178;SDS011;578;48.408;10.004;2023-10-19T07:59:18;36.88;;;32.65;;
1178;SDS011;578;48.408;10.004;2023-10-19T08:01:29;38.30;;;34.50;;
1178;SDS011;578;48.408;10.004;2023-10-19T08:03:41;36.28;;;32.40;;
1178;SDS011;578;48.408;10.004;2023-10-19T08:06:00;36.45;;;32.75;;
1178;SDS011;578;48.408;10.004;2023-10-19T08:08:13;35.88;;;32.33;;
1178;SDS011;578;48.408;10.004;2023-10-19T08:10:21;39.33;;;34.53;;
1178;SDS011;578;48.408;10.004;2023-10-19T08:12:39;38.80;;;34.80;;
1178;SDS011;578;48.408;10.004;2023-10-19T08:14:48;39.28;;;35.17;;
1178;SDS011;578;48.408;10.004;2023-10-19T08:16:52;39.42;;;35.33;;
1178;SDS011;578;48.408;10.004;2023-10-19T08:19:03;38.40;;;34.38;;
1178;SDS011;578;48.408;10.004;2023-10-19T08:21:11;37.97;;;33.88;;
1178;SDS011;578;48.408;10.004;2023-10-19T08:23:15;38.55;;;34.42;;
1178;SDS011;578;48.408;10.004;2023-10-19T08:25:27;38.90;;;34.83;;
1178;SDS011;578;48.408;10.004;2023-10-19T08:27:42;37.58;;;33.72;;
1178;SDS011;578;48.408;10.004;2023-10-19T08:29:48;36.63;;;32.87;;
1178;SDS011;578;48.408;10.004;2023-10-19T08:31:50;36.80;;;33.00;;
1178;SDS011;578;48.408;10.004;2023-10-19T08:33:52;40.60;;;36.30;;
1178;SDS011;578;48.408;10.004;2023-10-19T08:35:57;41.00;;;36.60;;
1178;SDS011;578;48.408;10.004;2023-10-19T08:37:58;39.87;;;35.73;;
1178;SDS011;578;48.408;10.004;2023-10-19T08:40:02;42.87;;;38.27;;
1178;SDS011;578;48.408;10.004;2023-10-19T08:42:05;39.23;;;35.23;;
1178;SDS011;578;48.408;10.004;2023-10-19T08:44:07;37.40;;;33.80;;
1178;SDS011;578;48.408;10.004;2023-10-19T08:46:11;37.73;;;33.97;;
1178;SDS011;578;48.408;10.004;2023-10-19T08:48:14;38.80;;;34.83;;
1178;SDS011;578;48.408;10.004;2023-10-19T08:50:16;39.65;;;35.63;;
1178;SDS011;578;48.408;10.004;2023-10-19T08:52:23;37.83;;;33.97;;
1178;SDS011;578;48.408;10.004;2023-10-19T08:54:26;37.97;;;34.13;;
1178;SDS011;578;48.408;10.004;2023-10-19T08:56:30;37.65;;;33.75;;
1178;SDS011;578;48.408;10.004;2023-10-19T08:58:34;38.70;;;34.03;;
1178;SDS011;578;48.408;10.004;2023-10-19T09:00:45;38.47;;;34.47;;
1178;SDS011;578;48.408;10.004;2023-10-19T09:02:48;36.92;;;32.30;;
1178;SDS011;578;48.408;10.004;2023-10-19T09:04:51;34.53;;;31.10;;
1178;SDS011;578;48.408;10.004;2023-10-19T09:06:54;40.13;;;36.08;;
1178;SDS011;578;48.408;10.004;2023-10-19T09:08:55;37.00;;;33.47;;
1178;SDS011;578;48.408;10.004;2023-10-19T09:10:58;36.45;;;32.95;;
1178;SDS011;578;48.408;10.004;2023-10-19T09:13:08;41.00;;;36.50;;
1178;SDS011;578;48.408;10.004;2023-10-19T09:15:16;39.13;;;35.10;;
1178;SDS011;578;48.408;10.004;2023-10-19T09:17:27;40.77;;;36.60;;
1178;SDS011;578;48.408;10.004;2023-10-19T09:19:36;36.43;;;32.80;;
1178;SDS011;578;48.408;10.004;2023-10-19T09:21:38;35.63;;;30.40;;
1178;SDS011;578;48.408;10.004;2023-10-19T09:23:40;33.93;;;30.60;;
1178;SDS011;578;48.408;10.004;2023-10-19T09:25:42;38.80;;;33.50;;
1178;SDS011;578;48.408;10.004;2023-10-19T09:27:43;34.77;;;31.50;;
1178;SDS011;578;48.408;10.004;2023-10-19T09:29:46;35.80;;;32.10;;
1178;SDS011;578;48.408;10.004;2023-10-19T09:31:48;33.23;;;30.23;;
1178;SDS011;578;48.408;10.004;2023-10-19T09:33:51;34.90;;;31.50;;
1178;SDS011;578;48.408;10.004;2023-10-19T09:35:54;32.07;;;28.93;;
1178;SDS011;578;48.408;10.004;2023-10-19T09:37:56;31.97;;;28.77;;
1178;SDS011;578;48.408;10.004;2023-10-19T09:39:59;34.47;;;30.87;;
1178;SDS011;578;48.408;10.004;2023-10-19T09:42:01;33.03;;;29.93;;
1178;SDS011;578;48.408;10.004;2023-10-19T09:44:06;31.00;;;27.90;;
1178;SDS011;578;48.408;10.004;2023-10-19T09:46:21;32.27;;;29.17;;
1178;SDS011;578;48.408;10.004;2023-10-19T09:48:24;36.07;;;32.67;;
1178;SDS011;578;48.408;10.004;2023-10-19T09:50:26;31.30;;;28.13;;
1178;SDS011;578;48.408;10.004;2023-10-19T09:52:29;32.37;;;29.37;;
1178;SDS011;578;48.408;10.004;2023-10-19T09:54:34;34.50;;;31.10;;
1178;SDS011;578;48.408;10.004;2023-10-19T09:56:46;35.03;;;31.73;;
1178;SDS011;578;48.408;10.004;2023-10-19T09:58:55;34.47;;;30.90;;
1178;SDS011;578;48.408;10.004;2023-10-19T10:01:00;37.03;;;32.67;;
1178;SDS011;578;48.408;10.004;2023-10-19T10:03:04;34.57;;;30.90;;
1178;SDS011;578;48.408;10.004;2023-10-19T10:07:42;34.63;;;31.33;;
1178;SDS011;578;48.408;10.004;2023-10-19T10:09:43;33.87;;;30.50;;
1178;SDS011;578;48.408;10.004;2023-10-19T10:11:47;31.70;;;28.63;;
1178;SDS011;578;48.408;10.004;2023-10-19T10:13:50;29.77;;;26.87;;
1178;SDS011;578;48.408;10.004;2023-10-19T10:15:52;30.73;;;27.90;;
1178;SDS011;578;48.408;10.004;2023-10-19T10:17:54;32.80;;;29.60;;
1178;SDS011;578;48.408;10.004;2023-10-19T10:22:34;28.27;;;25.63;;
1178;SDS011;578;48.408;10.004;2023-10-19T10:24:39;32.10;;;28.90;;
1178;SDS011;578;48.408;10.004;2023-10-19T10:26:57;31.87;;;29.00;;
1178;SDS011;578;48.408;10.004;2023-10-19T10:29:10;30.87;;;28.00;;
1178;SDS011;578;48.408;10.004;2023-10-19T10:31:14;30.57;;;27.80;;
1178;SDS011;578;48.408;10.004;2023-10-19T10:35:56;34.10;;;30.70;;
1178;SDS011;578;48.408;10.004;2023-10-19T10:37:59;32.33;;;29.30;;
1178;SDS011;578;48.408;10.004;2023-10-19T10:40:00;35.63;;;32.03;;
1178;SDS011;578;48.408;10.004;2023-10-19T10:42:04;32.67;;;29.47;;
1178;SDS011;578;48.408;10.004;2023-10-19T10:44:07;32.37;;;29.07;;
1178;SDS011;578;48.408;10.004;2023-10-19T10:46:09;33.40;;;30.20;;
1178;SDS011;578;48.408;10.004;2023-10-19T10:48:11;35.97;;;32.53;;
1178;SDS011;578;48.408;10.004;2023-10-19T10:50:19;36.23;;;32.67;;
1178;SDS011;578;48.408;10.004;2023-10-19T10:52:28;35.00;;;31.70;;
1178;SDS011;578;48.408;10.004;2023-10-19T10:54:32;36.47;;;32.80;;
1178;SDS011;578;48.408;10.004;2023-10-19T10:56:39;35.73;;;32.30;;
1178;SDS011;578;48.408;10.004;2023-10-19T10:58:41;34.87;;;31.30;;
1178;SDS011;578;48.408;10.004;2023-10-19T11:00:42;37.93;;;34.20;;
1178;SDS011;578;48.408;10.004;2023-10-19T11:02:45;34.97;;;31.57;;
1178;SDS011;578;48.408;10.004;2023-10-19T11:04:49;33.67;;;30.60;;
1178;SDS011;578;48.408;10.004;2023-10-19T11:06:51;42.37;;;34.53;;
1178;SDS011;578;48.408;10.004;2023-10-19T11:08:56;35.37;;;31.90;;
1178;SDS011;578;48.408;10.004;2023-10-19T11:10:57;35.27;;;31.47;;
1178;SDS011;578;48.408;10.004;2023-10-19T11:13:05;33.80;;;30.30;;
1178;SDS011;578;48.408;10.004;2023-10-19T11:15:08;33.27;;;30.10;;
1178;SDS011;578;48.408;10.004;2023-10-19T11:17:13;35.00;;;31.60;;
1178;SDS011;578;48.408;10.004;2023-10-19T11:19:15;32.90;;;29.80;;
1178;SDS011;578;48.408;10.004;2023-10-19T11:21:17;41.40;;;35.73;;
1178;SDS011;578;48.408;10.004;2023-10-19T11:23:18;39.17;;;35.33;;
1178;SDS011;578;48.408;10.004;2023-10-19T11:25:24;40.57;;;36.47;;
1178;SDS011;578;48.408;10.004;2023-10-19T11:27:28;39.43;;;35.43;;
1178;SDS011;578;48.408;10.004;2023-10-19T11:29:30;35.93;;;32.23;;
1178;SDS011;578;48.408;10.004;2023-10-19T11:31:32;37.77;;;33.83;;
1178;SDS011;578;48.408;10.004;2023-10-19T11:33:38;38.57;;;34.67;;
1178;SDS011;578;48.408;10.004;2023-10-19T11:35:39;39.47;;;35.20;;
1178;SDS011;578;48.408;10.004;2023-10-19T11:37:45;37.77;;;34.17;;
1178;SDS011;578;48.408;10.004;2023-10-19T11:39:47;37.40;;;33.70;;
1178;SDS011;578;48.408;10.004;2023-10-19T11:41:51;35.10;;;31.50;;
1178;SDS011;578;48.408;10.004;2023-10-19T11:43:54;38.43;;;34.47;;
1178;SDS011;578;48.408;10.004;2023-10-19T11:45:56;38.00;;;33.97;;
1178;SDS011;578;48.408;10.004;2023-10-19T11:47:57;34.93;;;31.23;;
1178;SDS011;578;48.408;10.004;2023-10-19T11:49:59;38.87;;;35.13;;
1178;SDS011;578;48.408;10.004;2023-10-19T11:52:03;36.60;;;32.97;;
1178;SDS011;578;48.408;10.004;2023-10-19T11:54:06;34.43;;;31.33;;
1178;SDS011;578;48.408;10.004;2023-10-19T11:56:09;36.40;;;32.87;;
1178;SDS011;578;48.408;10.004;2023-10-19T11:58:14;34.67;;;31.27;;
1178;SDS011;578;48.408;10.004;2023-10-19T12:00:16;38.07;;;34.33;;
1178;SDS011;578;48.408;10.004;2023-10-19T12:02:22;37.27;;;33.80;;
1178;SDS011;578;48.408;10.004;2023-10-19T12:04:24;38.77;;;33.97;;
1178;SDS011;578;48.408;10.004;2023-10-19T12:06:27;39.30;;;35.37;;
1178;SDS011;578;48.408;10.004;2023-10-19T12:08:28;36.23;;;32.77;;
1178;SDS011;578;48.408;10.004;2023-10-19T12:10:30;38.67;;;35.03;;
1178;SDS011;578;48.408;10.004;2023-10-19T12:12:35;36.00;;;32.70;;
1178;SDS011;578;48.408;10.004;2023-10-19T12:14:38;37.63;;;33.87;;
1178;SDS011;578;48.408;10.004;2023-10-19T12:16:40;36.03;;;32.53;;
1178;SDS011;578;48.408;10.004;2023-10-19T12:18:42;32.77;;;29.87;;
1178;SDS011;578;48.408;10.004;2023-10-19T12:20:44;39.70;;;35.87;;
1178;SDS011;578;48.408;10.004;2023-10-19T12:22:46;36.87;;;33.57;;
1178;SDS011;578;48.408;10.004;2023-10-19T12:24:48;35.10;;;31.90;;
1178;SDS011;578;48.408;10.004;2023-10-19T12:26:51;35.30;;;31.60;;
1178;SDS011;578;48.408;10.004;2023-10-19T12:28:53;31.57;;;28.60;;
1178;SDS011;578;48.408;10.004;2023-10-19T12:30:56;31.50;;;28.77;;
1178;SDS011;578;48.408;10.004;2023-10-19T12:32:59;31.43;;;28.53;;
1178;SDS011;578;48.408;10.004;2023-10-19T12:35:00;33.60;;;30.50;;
1178;SDS011;578;48.408;10.004;2023-10-19T12:37:04;33.63;;;30.63;;
1178;SDS011;578;48.408;10.004;2023-10-19T12:39:08;32.10;;;29.10;;
1178;SDS011;578;48.408;10.004;2023-10-19T12:41:15;33.27;;;30.27;;
1178;SDS011;578;48.408;10.004;2023-10-19T12:43:17;33.07;;;30.07;;
1178;SDS011;578;48.408;10.004;2023-10-19T12:45:22;33.17;;;30.30;;
1178;SDS011;578;48.408;10.004;2023-10-19T12:47:25;34.77;;;31.30;;